createdAt,value
2022-12-28T00:02:31.730Z,99180.69
2022-12-28T00:05:40.053Z,99175.47
2022-12-28T00:08:46.487Z,99180.69
2022-12-28T00:11:52.744Z,99177.19
2022-12-28T00:14:59.039Z,99167.59
2022-12-28T00:18:04.663Z,99168.47
2022-12-28T00:21:13.777Z,99172.19
2022-12-28T00:24:23.548Z,99172.19
2022-12-28T00:27:29.802Z,99177.41
2022-12-28T00:30:35.248Z,99160.78
2022-12-28T00:33:42.247Z,99171.84
2022-12-28T00:37:11.093Z,99169.16
2022-12-28T00:40:23.958Z,99174.09
2022-12-28T00:43:30.772Z,99172.97
2022-12-28T00:46:38.321Z,99176.38
2022-12-28T00:49:43.771Z,99173.78
2022-12-28T00:52:52.847Z,99173.03
2022-12-28T00:55:58.610Z,99175.03
2022-12-28T00:59:04.942Z,99176.03
2022-12-28T01:02:10.595Z,99178.81
2022-12-28T01:05:16.891Z,99176.53
2022-12-28T01:08:25.063Z,99177.25
2022-12-28T01:11:34.444Z,99174.66
2022-12-28T01:14:39.845Z,99175.53
2022-12-28T01:17:46.083Z,99179.00
2022-12-28T01:20:51.511Z,99173.78
2022-12-28T01:24:03.682Z,99171.25
2022-12-28T01:27:10.582Z,99173.03
2022-12-28T01:30:18.304Z,99173.91
2022-12-28T01:33:23.780Z,99174.84
2022-12-28T01:36:35.145Z,99179.34
2022-12-28T01:39:43.320Z,99168.38
2022-12-28T01:42:49.535Z,99171.16
2022-12-28T01:45:57.003Z,99167.97
2022-12-28T01:49:13.267Z,99163.75
2022-12-28T01:52:29.104Z,99165.53
2022-12-28T01:55:44.551Z,99160.41
2022-12-28T01:58:51.279Z,99163.00
2022-12-28T02:01:59.057Z,99148.41
2022-12-28T02:05:06.010Z,99138.94
2022-12-28T02:08:21.834Z,99133.81
2022-12-28T02:11:30.172Z,99146.81
2022-12-28T02:14:39.044Z,99142.66
2022-12-28T02:17:46.868Z,99129.00
2022-12-28T02:21:25.404Z,99129.22
2022-12-28T02:25:14.059Z,99120.69
2022-12-28T02:29:26.526Z,99110.34
2022-12-28T02:33:01.071Z,99093.03
2022-12-28T02:36:18.958Z,99090.31
2022-12-28T02:39:35.007Z,99098.97
2022-12-28T02:42:43.583Z,99092.94
2022-12-28T02:46:09.294Z,99092.94
2022-12-28T02:49:42.647Z,99080.84
2022-12-28T02:53:39.452Z,99086.81
2022-12-28T02:56:56.135Z,99088.59
2022-12-28T03:00:12.141Z,99076.53
2022-12-28T03:03:37.489Z,99082.63
2022-12-28T03:07:15.514Z,99068.69
2022-12-28T03:10:32.357Z,99073.88
2022-12-28T03:13:50.728Z,99076.47
2022-12-28T03:17:20.033Z,99072.31
2022-12-28T03:20:50.871Z,99077.56
2022-12-28T03:24:15.879Z,99019.47
2022-12-28T03:27:42.139Z,99075.16
2022-12-28T03:31:08.978Z,99075.41
2022-12-28T03:34:22.281Z,99071.25
2022-12-28T03:37:44.555Z,98980.75
2022-12-28T03:41:05.441Z,99062.75
2022-12-28T03:44:18.833Z,99049.78
2022-12-28T03:47:32.058Z,99048.09
2022-12-28T03:50:43.333Z,99040.25
2022-12-28T03:53:53.520Z,99047.19
2022-12-28T03:57:00.972Z,99042.81
2022-12-28T04:00:14.383Z,99043.66
2022-12-28T04:03:22.298Z,99031.56
2022-12-28T04:06:28.593Z,99034.94
2022-12-28T04:09:39.084Z,99027.09
2022-12-28T04:12:46.526Z,99021.06
2022-12-28T04:16:07.839Z,99022.72
2022-12-28T04:19:15.696Z,99013.13
2022-12-28T04:22:22.124Z,98997.50
2022-12-28T04:25:31.539Z,99008.84
2022-12-28T04:28:38.717Z,99012.28
2022-12-28T04:32:00.269Z,99005.34
2022-12-28T04:35:06.497Z,98997.63
2022-12-28T04:38:22.322Z,98993.13
2022-12-28T04:41:30.906Z,98996.50
2022-12-28T04:44:37.135Z,98990.38
2022-12-28T04:47:42.591Z,98980.78
2022-12-28T04:50:48.851Z,98973.81
2022-12-28T04:53:55.651Z,98979.88
2022-12-28T04:57:04.666Z,98985.13
2022-12-28T05:00:12.271Z,98980.69
2022-12-28T05:03:18.529Z,98981.56
2022-12-28T05:06:27.508Z,98971.97
2022-12-28T05:09:33.761Z,98973.69
2022-12-28T05:12:41.953Z,98957.25
2022-12-28T05:15:48.244Z,98968.53
2022-12-28T05:18:54.053Z,98967.72
2022-12-28T05:22:00.295Z,98965.97
2022-12-28T05:25:05.897Z,98957.38
2022-12-28T05:28:14.899Z,98965.22
2022-12-28T05:31:24.685Z,98952.28
2022-12-28T05:34:31.141Z,98947.94
2022-12-28T05:37:37.011Z,98941.09
2022-12-28T05:40:43.265Z,98946.34
2022-12-28T05:43:52.074Z,98947.25
2022-12-28T05:46:58.479Z,98942.94
2022-12-28T05:50:03.885Z,98937.88
2022-12-28T05:53:10.133Z,98938.69
2022-12-28T05:56:18.961Z,98932.56
2022-12-28T05:59:28.173Z,98930.91
2022-12-28T06:02:34.244Z,98932.63
2022-12-28T06:05:40.710Z,98943.75
2022-12-28T06:08:49.124Z,98927.44
2022-12-28T06:11:55.563Z,98929.09
2022-12-28T06:15:03.725Z,98931.81
2022-12-28T06:18:10.463Z,98940.47
2022-12-28T06:21:19.435Z,98913.66
2022-12-28T06:24:25.692Z,98913.66
2022-12-28T06:27:31.093Z,98908.47
2022-12-28T06:30:40.324Z,98913.59
2022-12-28T06:33:46.998Z,98911.88
2022-12-28T06:36:54.231Z,98897.16
2022-12-28T06:39:59.604Z,98904.03
2022-12-28T06:43:06.507Z,98917.94
2022-12-28T06:46:16.664Z,98913.59
2022-12-28T06:49:23.169Z,98916.13
2022-12-28T06:52:28.561Z,98907.44
2022-12-28T06:55:37.166Z,98903.06
2022-12-28T06:58:42.899Z,98909.09
2022-12-28T07:01:52.042Z,98913.44
2022-12-28T07:04:57.476Z,98911.81
2022-12-28T07:08:09.096Z,98911.75
2022-12-28T07:11:21.261Z,98912.56
2022-12-28T07:14:27.667Z,98909.03
2022-12-28T07:17:35.870Z,98908.13
2022-12-28T07:20:42.126Z,98909.84
2022-12-28T07:23:47.661Z,98902.00
2022-12-28T07:26:53.963Z,98895.81
2022-12-28T07:29:59.522Z,98896.63
2022-12-28T07:33:08.594Z,98894.81
2022-12-28T07:36:19.834Z,98897.38
2022-12-28T07:39:26.053Z,98891.25
2022-12-28T07:42:32.631Z,98894.63
2022-12-28T07:45:39.818Z,98895.41
2022-12-28T07:48:49.783Z,98886.63
2022-12-28T07:51:56.204Z,98888.34
2022-12-28T07:55:03.883Z,98882.13
2022-12-28T07:58:10.182Z,98890.63
2022-12-28T08:01:19.968Z,98878.34
2022-12-28T08:04:29.441Z,98889.41
2022-12-28T08:07:34.863Z,98881.59
2022-12-28T08:10:41.481Z,98882.22
2022-12-28T08:13:50.244Z,98875.06
2022-12-28T08:16:56.766Z,98875.69
2022-12-28T08:20:05.499Z,98879.81
2022-12-28T08:23:12.243Z,98873.66
2022-12-28T08:26:21.411Z,98878.00
2022-12-28T08:29:27.659Z,98881.41
2022-12-28T08:32:33.116Z,98874.44
2022-12-28T08:35:42.412Z,98876.78
2022-12-28T08:38:49.505Z,98877.41
2022-12-28T08:41:55.957Z,98863.41
2022-12-28T08:45:01.325Z,98871.78
2022-12-28T08:48:08.684Z,98870.69
2022-12-28T08:51:21.005Z,98861.78
2022-12-28T08:54:27.426Z,98863.34
2022-12-28T08:57:33.052Z,98865.59
2022-12-28T09:00:39.834Z,98871.47
2022-12-28T09:03:48.895Z,98866.91
2022-12-28T09:06:58.010Z,98871.09
2022-12-28T09:10:03.456Z,98876.97
2022-12-28T09:13:11.027Z,98877.53
2022-12-28T09:16:23.874Z,98878.03
2022-12-28T09:19:32.855Z,98881.19
2022-12-28T09:22:40.992Z,98874.91
2022-12-28T09:25:47.620Z,98866.94
2022-12-28T09:28:57.039Z,98866.94
2022-12-28T09:32:03.315Z,98866.84
2022-12-28T09:35:10.354Z,98865.72
2022-12-28T09:38:19.490Z,98876.00
2022-12-28T09:41:33.505Z,98864.41
2022-12-28T09:44:57.633Z,98866.00
2022-12-28T09:48:14.531Z,98860.69
2022-12-28T09:51:28.099Z,98862.31
2022-12-28T09:54:36.369Z,98863.38
2022-12-28T09:57:49.525Z,98858.94
2022-12-28T10:01:00.735Z,98860.44
2022-12-28T10:04:08.520Z,98866.50
2022-12-28T10:07:15.264Z,98855.09
2022-12-28T10:10:27.593Z,98849.63
2022-12-28T10:13:54.776Z,98847.72
2022-12-28T10:17:01.808Z,98837.97
2022-12-28T10:20:08.165Z,98836.97
2022-12-28T10:23:24.278Z,98827.34
2022-12-28T10:26:33.844Z,98823.97
2022-12-28T10:29:40.804Z,98808.47
2022-12-28T10:33:01.795Z,98798.72
2022-12-28T10:36:15.939Z,98783.66
2022-12-28T10:39:28.781Z,98773.91
2022-12-28T10:42:44.305Z,98780.75
2022-12-28T10:45:55.133Z,98778.16
2022-12-28T10:49:07.737Z,98759.00
2022-12-28T10:52:24.069Z,98755.72
2022-12-28T10:55:33.881Z,98745.28
2022-12-28T10:58:43.830Z,98730.47
2022-12-28T11:01:50.406Z,98739.53
2022-12-28T11:05:01.728Z,98726.63
2022-12-28T11:08:09.973Z,98728.19
2022-12-28T11:11:26.500Z,98727.97
2022-12-28T11:14:40.643Z,98718.31
2022-12-28T11:17:48.160Z,98657.00
2022-12-28T11:20:57.572Z,98723.03
2022-12-28T11:24:03.192Z,98711.72
2022-12-28T11:27:15.963Z,98723.72
2022-12-28T11:30:25.183Z,98703.38
2022-12-28T11:33:45.398Z,98699.75
2022-12-28T11:36:52.799Z,98697.00
2022-12-28T11:39:59.330Z,98693.25
2022-12-28T11:43:04.813Z,98680.53
2022-12-28T11:46:45.168Z,98667.06
2022-12-28T11:49:51.745Z,98663.22
2022-12-28T11:52:58.132Z,98652.44
2022-12-28T11:56:09.700Z,98650.34
2022-12-28T11:59:29.621Z,98637.47
2022-12-28T12:02:53.420Z,98638.97
2022-12-28T12:05:59.947Z,98638.63
2022-12-28T12:09:05.403Z,98632.47
2022-12-28T12:12:49.598Z,98619.28
2022-12-28T12:16:02.166Z,98617.19
2022-12-28T12:19:25.100Z,98611.31
2022-12-28T12:22:44.032Z,98597.25
2022-12-28T12:25:57.202Z,98607.72
2022-12-28T12:29:18.273Z,98595.47
2022-12-28T12:32:37.824Z,98593.25
2022-12-28T12:36:04.992Z,98599.44
2022-12-28T12:39:39.002Z,98595.25
2022-12-28T12:43:10.959Z,98607.63
2022-12-28T12:46:52.737Z,98581.91
2022-12-28T12:50:32.302Z,98594.72
2022-12-28T12:54:10.140Z,98579.44
2022-12-28T12:57:29.606Z,98576.16
2022-12-28T13:00:55.400Z,98568.38
2022-12-28T13:04:12.312Z,98565.63
2022-12-28T13:07:27.237Z,98575.53
2022-12-28T13:10:40.980Z,98572.72
2022-12-28T13:13:52.366Z,98568.47
2022-12-28T13:17:02.265Z,98566.22
2022-12-28T13:20:20.584Z,98551.75
2022-12-28T13:23:27.633Z,98556.50
2022-12-28T13:26:44.906Z,98550.63
2022-12-28T13:29:56.995Z,98537.06
2022-12-28T13:33:05.207Z,98539.22
2022-12-28T13:36:22.292Z,98535.44
2022-12-28T13:39:34.118Z,98513.56
2022-12-28T13:43:20.229Z,98523.19
2022-12-28T13:46:28.641Z,98520.88
2022-12-28T13:49:46.186Z,98524.38
2022-12-28T13:53:02.668Z,98524.91
2022-12-28T13:56:14.090Z,98517.19
2022-12-28T13:59:25.443Z,98522.13
2022-12-28T14:02:31.877Z,98526.53
2022-12-28T14:05:38.859Z,98525.94
2022-12-28T14:08:46.532Z,98521.28
2022-12-28T14:11:54.900Z,98536.97
2022-12-28T14:15:04.762Z,98524.81
2022-12-28T14:18:16.738Z,98521.41
2022-12-28T14:21:36.509Z,98514.03
2022-12-28T14:25:05.668Z,98519.97
2022-12-28T14:28:22.028Z,98541.78
2022-12-28T14:31:48.920Z,98522.59
2022-12-28T14:35:23.334Z,98527.16
2022-12-28T14:38:57.268Z,98529.09
2022-12-28T14:42:32.197Z,98523.66
2022-12-28T14:49:42.903Z,98526.00
2022-12-28T14:52:53.017Z,98515.22
2022-12-28T14:56:11.427Z,98510.09
2022-12-28T14:59:26.697Z,98519.78
2022-12-28T15:00:25.306Z,98525.66
2022-12-28T15:02:43.660Z,98501.59
2022-12-28T15:05:55.519Z,98488.03
2022-12-28T15:09:06.552Z,98490.75
2022-12-28T15:12:18.012Z,98493.56
2022-12-28T15:15:23.980Z,98495.44
2022-12-28T15:18:33.447Z,98490.34
2022-12-28T15:21:42.178Z,98481.75
2022-12-28T15:24:49.530Z,98481.88
2022-12-28T15:27:56.521Z,98481.88
2022-12-28T15:31:02.786Z,98484.59
2022-12-28T15:34:08.262Z,98472.53
2022-12-28T15:37:17.400Z,98464.91
2022-12-28T15:40:22.879Z,98478.19
2022-12-28T15:43:29.194Z,98472.19
2022-12-28T15:46:34.840Z,98462.75
2022-12-28T15:49:41.430Z,98461.19
2022-12-28T15:52:49.590Z,98455.34
2022-12-28T15:56:02.558Z,98457.41
2022-12-28T15:59:14.863Z,98452.47
2022-12-28T16:02:21.643Z,98448.16
2022-12-28T16:05:27.160Z,98449.22
2022-12-28T16:08:36.171Z,98450.09
2022-12-28T16:11:42.069Z,98442.53
2022-12-28T16:14:49.886Z,98440.84
2022-12-28T16:17:57.684Z,98441.84
2022-12-28T16:21:04.869Z,98445.63
2022-12-28T16:24:14.549Z,98437.81
2022-12-28T16:27:21.139Z,98424.13
2022-12-28T16:30:26.675Z,98431.94
2022-12-28T16:33:33.040Z,98436.94
2022-12-28T16:36:38.597Z,98441.25
2022-12-28T16:39:47.679Z,98437.69
2022-12-28T16:42:53.066Z,98444.63
2022-12-28T16:45:59.406Z,98437.69
2022-12-28T16:49:05.779Z,98437.69
2022-12-28T16:52:12.547Z,98431.38
2022-12-28T16:55:21.117Z,98428.81
2022-12-28T16:58:27.419Z,98427.16
2022-12-28T17:01:33.101Z,98427.03
2022-12-28T17:04:39.635Z,98428.81
2022-12-28T17:07:45.308Z,98433.94
2022-12-28T17:10:54.282Z,98428.81
2022-12-28T17:14:04.742Z,98428.59
2022-12-28T17:17:12.526Z,98420.00
2022-12-28T17:20:18.207Z,98421.94
2022-12-28T17:23:24.515Z,98421.81
2022-12-28T17:26:32.791Z,98425.44
2022-12-28T17:29:40.154Z,98422.84
2022-12-28T17:32:45.598Z,98425.69
2022-12-28T17:35:52.123Z,98417.09
2022-12-28T17:38:57.712Z,98419.81
2022-12-28T17:42:07.393Z,98420.72
2022-12-28T17:45:14.007Z,98408.47
2022-12-28T17:48:20.477Z,98421.44
2022-12-28T17:51:26.998Z,98415.41
2022-12-28T17:54:33.275Z,98418.78
2022-12-28T17:57:41.496Z,98411.63
2022-12-28T18:00:47.822Z,98415.09
2022-12-28T18:03:54.352Z,98408.94
2022-12-28T18:07:00.600Z,98416.72
2022-12-28T18:10:06.921Z,98418.41
2022-12-28T18:13:17.103Z,98418.28
2022-12-28T18:16:23.056Z,98423.69
2022-12-28T18:19:29.838Z,98419.66
2022-12-28T18:22:35.535Z,98419.69
2022-12-28T18:25:42.690Z,98411.22
2022-12-28T18:28:51.155Z,98415.00
2022-12-28T18:31:57.405Z,98416.25
2022-12-28T18:35:03.134Z,98420.75
2022-12-28T18:38:09.572Z,98419.81
2022-12-28T18:41:18.839Z,98426.84
2022-12-28T18:44:28.404Z,98422.69
2022-12-28T18:47:35.537Z,98415.88
2022-12-28T18:50:42.051Z,98414.53
2022-12-28T18:53:50.436Z,98421.34
2022-12-28T18:56:56.792Z,98422.44
2022-12-28T19:00:05.380Z,98426.81
2022-12-28T19:03:12.468Z,98420.78
2022-12-28T19:06:17.998Z,98421.75
2022-12-28T19:09:26.041Z,98426.81
2022-12-28T19:12:31.505Z,98413.84
2022-12-28T19:15:40.532Z,98420.59
2022-12-28T19:18:46.247Z,98417.25
2022-12-28T19:21:58.427Z,98420.88
2022-12-28T19:25:04.580Z,98417.50
2022-12-28T19:28:11.538Z,98419.28
2022-12-28T19:31:19.906Z,98398.47
2022-12-28T19:34:26.260Z,98405.28
2022-12-28T19:37:31.631Z,98411.19
2022-12-28T19:40:37.898Z,98405.94
2022-12-28T19:43:43.792Z,98405.03
2022-12-28T19:46:54.238Z,98401.50
2022-12-28T19:49:59.762Z,98393.66
2022-12-28T19:53:06.157Z,98397.09
2022-12-28T19:56:16.317Z,98396.94
2022-12-28T19:59:22.655Z,98390.03
2022-12-28T20:02:31.085Z,98388.38
2022-12-28T20:05:39.043Z,98387.50
2022-12-28T20:08:49.535Z,98378.75
2022-12-28T20:11:55.933Z,98379.78
2022-12-28T20:15:01.788Z,98375.59
2022-12-28T20:18:11.452Z,98365.06
2022-12-28T20:21:19.667Z,98365.06
2022-12-28T20:24:27.128Z,98372.66
2022-12-28T20:27:33.379Z,98366.50
2022-12-28T20:30:39.674Z,98369.31
2022-12-28T20:33:48.873Z,98366.78
2022-12-28T20:36:55.570Z,98363.41
2022-12-28T20:40:01.123Z,98357.25
2022-12-28T20:43:23.305Z,98363.25
2022-12-28T20:46:28.862Z,98356.25
2022-12-28T20:49:38.829Z,98363.13
2022-12-28T20:52:44.868Z,98363.03
2022-12-28T20:55:51.765Z,98354.31
2022-12-28T20:58:57.575Z,98344.00
2022-12-28T21:02:04.496Z,98337.09
2022-12-28T21:05:13.795Z,98338.81
2022-12-28T21:08:20.231Z,98339.66
2022-12-28T21:11:28.965Z,98338.81
2022-12-28T21:14:35.417Z,98338.69
2022-12-28T21:17:40.879Z,98334.25
2022-12-28T21:20:53.874Z,98333.22
2022-12-28T21:23:59.554Z,98324.56
2022-12-28T21:27:05.924Z,98329.72
2022-12-28T21:30:13.199Z,98308.94
2022-12-28T21:33:19.578Z,98314.03
2022-12-28T21:36:27.883Z,98314.03
2022-12-28T21:39:34.215Z,98305.38
2022-12-28T21:42:40.145Z,98303.81
2022-12-28T21:45:46.581Z,98293.50
2022-12-28T21:48:52.084Z,98300.53
2022-12-28T21:52:03.215Z,98291.94
2022-12-28T21:55:21.800Z,98298.81
2022-12-28T21:58:28.096Z,98295.31
2022-12-28T22:01:50.079Z,98293.50
2022-12-28T22:05:12.475Z,98289.22
2022-12-28T22:08:36.728Z,98283.16
2022-12-28T22:11:58.705Z,98276.06
2022-12-28T22:15:25.412Z,98270.72
2022-12-28T22:21:57.102Z,98282.06
2022-12-28T22:25:06.263Z,98271.78
2022-12-28T22:28:12.059Z,98276.19
2022-12-28T22:31:18.578Z,98276.19
2022-12-28T22:34:24.099Z,98278.66
2022-12-28T22:37:30.586Z,98288.19
2022-12-28T22:40:38.838Z,98287.97
2022-12-28T22:43:45.341Z,98287.94
2022-12-28T22:46:50.756Z,98293.03
2022-12-28T22:49:57.312Z,98291.16
2022-12-28T22:53:02.766Z,98295.50
2022-12-28T22:56:21.040Z,98303.31
2022-12-28T22:59:26.657Z,98306.84
2022-12-28T23:02:33.296Z,98295.63
2022-12-28T23:05:38.807Z,98305.97
2022-12-28T23:08:46.140Z,98305.03
2022-12-28T23:11:54.343Z,98302.22
2022-12-28T23:15:19.967Z,98297.75
2022-12-28T23:18:41.758Z,98287.22
2022-12-28T23:22:03.196Z,98288.00
2022-12-28T23:25:26.461Z,98290.41
2022-12-28T23:28:38.808Z,98287.75
2022-12-28T23:31:44.185Z,98283.44
2022-12-28T23:34:52.592Z,98291.31
2022-12-28T23:37:58.179Z,98290.59
2022-12-28T23:41:25.293Z,98229.56
2022-12-28T23:44:33.436Z,98287.91
2022-12-28T23:47:41.075Z,98289.69
2022-12-28T23:50:46.699Z,98291.25
2022-12-28T23:53:53.008Z,98283.44
2022-12-28T23:56:58.499Z,98281.34
